createdAt,value
2022-09-24T00:00:10.292Z,1000.74
2022-09-24T00:01:15.271Z,1000.74
2022-09-24T00:02:11.378Z,1000.76
2022-09-24T00:03:10.352Z,1000.76
2022-09-24T00:04:10.323Z,1000.74
2022-09-24T00:05:10.245Z,1000.69
2022-09-24T00:06:10.535Z,1000.72
2022-09-24T00:07:10.229Z,1000.69
2022-09-24T00:08:10.212Z,1000.71
2022-09-24T00:09:10.213Z,1000.68
2022-09-24T00:10:10.177Z,1000.65
2022-09-24T00:11:10.187Z,1000.73
2022-09-24T00:12:10.458Z,1000.71
2022-09-24T00:13:10.149Z,1000.70
2022-09-24T00:14:10.194Z,1000.66
2022-09-24T00:15:10.131Z,1000.67
2022-09-24T00:16:10.196Z,1000.70
2022-09-24T00:17:10.427Z,1000.75
2022-09-24T00:18:10.094Z,1000.71
2022-09-24T00:19:10.101Z,1000.72
2022-09-24T00:20:10.060Z,1000.71
2022-09-24T00:21:10.071Z,1000.73
2022-09-24T00:22:10.041Z,1000.67
2022-09-24T00:23:10.063Z,1000.74
2022-09-24T00:24:10.035Z,1000.68
2022-09-24T00:25:10.046Z,1000.68
2022-09-24T00:26:10.004Z,1000.72
2022-09-24T00:27:10.004Z,1000.71
2022-09-24T00:28:09.985Z,1000.73
2022-09-24T00:29:09.975Z,1000.71
2022-09-24T00:30:09.963Z,1000.75
2022-09-24T00:31:10.048Z,1000.76
2022-09-24T00:32:09.926Z,1000.76
2022-09-24T00:33:10.183Z,1000.73
2022-09-24T00:34:09.996Z,1000.73
2022-09-24T00:35:09.916Z,1000.69
2022-09-24T00:36:09.883Z,1000.59
2022-09-24T00:37:09.870Z,1000.63
2022-09-24T00:38:09.877Z,1000.61
2022-09-24T00:39:10.168Z,1000.64
2022-09-24T00:40:09.942Z,1000.67
2022-09-24T00:41:09.965Z,1000.69
2022-09-24T00:42:09.806Z,1000.69
2022-09-24T00:43:09.817Z,1000.68
2022-09-24T00:44:10.048Z,1000.71
2022-09-24T00:45:10.090Z,1000.70
2022-09-24T00:46:09.846Z,1000.72
2022-09-24T00:47:09.859Z,1000.66
2022-09-24T00:48:09.738Z,1000.72
2022-09-24T00:49:09.950Z,1000.64
2022-09-24T00:50:09.737Z,1000.64
2022-09-24T00:51:09.707Z,1000.63
2022-09-24T00:52:09.710Z,1000.63
2022-09-24T00:53:09.701Z,1000.61
2022-09-24T00:54:09.675Z,1000.58
2022-09-24T00:55:09.980Z,1000.61
2022-09-24T00:56:09.661Z,1000.58
2022-09-24T00:57:09.638Z,1000.61
2022-09-24T00:58:09.633Z,1000.61
2022-09-24T00:59:09.623Z,1000.58
2022-09-24T01:00:09.614Z,1000.54
2022-09-24T01:01:09.675Z,1000.56
2022-09-24T01:02:09.636Z,1000.57
2022-09-24T01:03:09.583Z,1000.56
2022-09-24T01:04:09.551Z,1000.58
2022-09-24T01:05:09.562Z,1000.55
2022-09-24T01:06:09.562Z,1000.54
2022-09-24T01:07:09.554Z,1000.49
2022-09-24T01:08:09.512Z,1000.49
2022-09-24T01:09:09.492Z,1000.47
2022-09-24T01:10:09.482Z,1000.50
2022-09-24T01:11:09.486Z,1000.47
2022-09-24T01:12:09.797Z,1000.54
2022-09-24T01:13:09.466Z,1000.51
2022-09-24T01:14:09.448Z,1000.53
2022-09-24T01:15:09.438Z,1000.58
2022-09-24T01:16:09.533Z,1000.48
2022-09-24T01:17:09.428Z,1000.55
2022-09-24T01:18:09.408Z,1000.52
2022-09-24T01:19:09.382Z,1000.53
2022-09-24T01:20:09.369Z,1000.52
2022-09-24T01:21:09.355Z,1000.57
2022-09-24T01:22:09.345Z,1000.53
2022-09-24T01:23:09.663Z,1000.54
2022-09-24T01:24:09.316Z,1000.51
2022-09-24T01:25:09.321Z,1000.54
2022-09-24T01:26:09.286Z,1000.55
2022-09-24T01:27:09.304Z,1000.55
2022-09-24T01:28:09.269Z,1000.53
2022-09-24T01:29:09.293Z,1000.52
2022-09-24T01:30:09.248Z,1000.54
2022-09-24T01:31:09.285Z,1000.52
2022-09-24T01:32:09.253Z,1000.56
2022-09-24T01:33:09.222Z,1000.53
2022-09-24T01:34:09.261Z,1000.56
2022-09-24T01:35:09.202Z,1000.51
2022-09-24T01:36:09.170Z,1000.57
2022-09-24T01:37:09.172Z,1000.54
2022-09-24T01:38:09.477Z,1000.51
2022-09-24T01:39:09.154Z,1000.51
2022-09-24T01:40:09.178Z,1000.51
2022-09-24T01:41:09.132Z,1000.51
2022-09-24T01:42:09.123Z,1000.48
2022-09-24T01:43:09.091Z,1000.46
2022-09-24T01:44:09.441Z,1000.51
2022-09-24T01:45:09.073Z,1000.46
2022-09-24T01:46:09.124Z,1000.46
2022-09-24T01:47:09.056Z,1000.49
2022-09-24T01:48:09.032Z,1000.45
2022-09-24T01:49:09.046Z,1000.40
2022-09-24T01:50:09.243Z,1000.46
2022-09-24T01:51:09.002Z,1000.41
2022-09-24T01:52:08.985Z,1000.35
2022-09-24T01:53:08.996Z,1000.37
2022-09-24T01:54:09.339Z,1000.34
2022-09-24T01:55:08.968Z,1000.30
2022-09-24T01:56:08.935Z,1000.33
2022-09-24T01:57:08.946Z,1000.30
2022-09-24T01:58:08.929Z,1000.28
2022-09-24T01:59:08.905Z,1000.36
2022-09-24T02:00:09.221Z,1000.28
2022-09-24T02:01:08.941Z,1000.30
2022-09-24T02:02:08.915Z,1000.31
2022-09-24T02:03:08.869Z,1000.30
2022-09-24T02:04:08.937Z,1000.26
2022-09-24T02:05:09.149Z,1000.25
2022-09-24T02:06:08.831Z,1000.27
2022-09-24T02:07:08.897Z,1000.21
2022-09-24T02:08:08.818Z,1000.22
2022-09-24T02:09:08.788Z,1000.28
2022-09-24T02:10:08.769Z,1000.27
2022-09-24T02:11:08.770Z,1000.20
2022-09-24T02:12:09.002Z,1000.20
2022-09-24T02:13:08.752Z,1000.25
2022-09-24T02:14:08.766Z,1000.22
2022-09-24T02:15:08.721Z,1000.22
2022-09-24T02:16:09.017Z,1000.19
2022-09-24T02:17:08.705Z,1000.22
2022-09-24T02:18:08.693Z,1000.18
2022-09-24T02:19:08.672Z,1000.21
2022-09-24T02:20:08.666Z,1000.23
2022-09-24T02:21:08.642Z,1000.20
2022-09-24T02:22:08.892Z,1000.23
2022-09-24T02:23:08.636Z,1000.20
2022-09-24T02:24:08.667Z,1000.18
2022-09-24T02:25:08.613Z,1000.23
2022-09-24T02:26:08.617Z,1000.18
2022-09-24T02:27:08.574Z,1000.21
2022-09-24T02:28:08.564Z,1000.19
2022-09-24T02:29:08.577Z,1000.11
2022-09-24T02:30:08.548Z,1000.16
2022-09-24T02:31:08.567Z,1000.11
2022-09-24T02:32:08.548Z,1000.11
2022-09-24T02:33:08.520Z,1000.06
2022-09-24T02:34:08.887Z,1000.10
2022-09-24T02:35:08.476Z,1000.08
2022-09-24T02:36:08.479Z,1000.10
2022-09-24T02:37:08.455Z,1000.10
2022-09-24T02:38:08.756Z,1000.08
2022-09-24T02:39:08.456Z,1000.11
2022-09-24T02:40:08.768Z,1000.07
2022-09-24T02:41:08.421Z,1000.12
2022-09-24T02:42:08.387Z,1000.07
2022-09-24T02:43:08.384Z,1000.05
2022-09-24T02:44:08.432Z,1000.08
2022-09-24T02:45:08.362Z,1000.05
2022-09-24T02:46:08.633Z,1000.05
2022-09-24T02:47:08.361Z,1000.08
2022-09-24T02:48:08.341Z,1000.08
2022-09-24T02:49:08.310Z,1000.09
2022-09-24T02:50:08.299Z,1000.08
2022-09-24T02:51:08.303Z,1000.06
2022-09-24T02:52:08.513Z,1000.03
2022-09-24T02:53:23.162Z,1000.08
2022-09-24T02:54:08.354Z,1000.00
2022-09-24T02:55:08.241Z,1000.03
2022-09-24T02:56:08.235Z,1000.02
2022-09-24T02:57:08.555Z,1000.03
2022-09-24T02:58:08.222Z,1000.06
2022-09-24T02:59:08.207Z,1000.03
2022-09-24T03:00:08.183Z,1000.03
2022-09-24T03:01:08.175Z,1000.07
2022-09-24T03:02:08.257Z,1000.05
2022-09-24T03:03:08.490Z,1000.06
2022-09-24T03:04:08.220Z,1000.05
2022-09-24T03:05:08.137Z,1000.06
2022-09-24T03:06:08.124Z,1000.02
2022-09-24T03:07:08.103Z,1000.00
2022-09-24T03:08:08.085Z,1000.00
2022-09-24T03:09:08.388Z,1000.00
2022-09-24T03:10:08.078Z,1000.02
2022-09-24T03:11:08.073Z,1000.00
2022-09-24T03:12:08.066Z,1000.02
2022-09-24T03:13:08.047Z,999.98
2022-09-24T03:14:08.015Z,999.95
2022-09-24T03:15:08.306Z,999.97
2022-09-24T03:16:08.025Z,999.96
2022-09-24T03:17:08.216Z,999.98
2022-09-24T03:18:07.991Z,999.96
2022-09-24T03:19:07.966Z,999.96
2022-09-24T03:20:07.940Z,1000.02
2022-09-24T03:21:07.940Z,1000.03
2022-09-24T03:22:07.932Z,999.97
2022-09-24T03:23:08.227Z,999.95
2022-09-24T03:24:07.926Z,999.98
2022-09-24T03:25:07.889Z,999.97
2022-09-24T03:26:07.890Z,999.91
2022-09-24T03:27:07.874Z,999.92
2022-09-24T03:28:07.882Z,999.86
2022-09-24T03:29:07.854Z,999.82
2022-09-24T03:30:07.842Z,999.83
2022-09-24T03:31:07.853Z,999.84
2022-09-24T03:32:07.801Z,999.90
2022-09-24T03:33:07.804Z,999.85
2022-09-24T03:34:08.067Z,999.82
2022-09-24T03:35:07.761Z,999.81
2022-09-24T03:36:07.960Z,999.83
2022-09-24T03:37:07.762Z,999.80
2022-09-24T03:38:07.732Z,999.76
2022-09-24T03:39:07.737Z,999.79
2022-09-24T03:40:07.752Z,999.77
2022-09-24T03:41:07.916Z,999.71
2022-09-24T03:42:07.697Z,999.79
2022-09-24T03:43:07.686Z,999.74
2022-09-24T03:44:07.774Z,999.74
2022-09-24T03:45:07.657Z,999.69
2022-09-24T03:46:07.687Z,999.69
2022-09-24T03:47:07.928Z,999.70
2022-09-24T03:48:07.615Z,999.69
2022-09-24T03:49:07.827Z,999.69
2022-09-24T03:50:07.637Z,999.67
2022-09-24T03:51:07.608Z,999.66
2022-09-24T03:52:07.605Z,999.71
2022-09-24T03:53:07.557Z,999.69
2022-09-24T03:54:07.837Z,999.65
2022-09-24T03:55:07.540Z,999.73
2022-09-24T03:56:07.531Z,999.71
2022-09-24T03:57:07.520Z,999.68
2022-09-24T03:58:07.512Z,999.67
2022-09-24T03:59:07.491Z,999.69
2022-09-24T04:00:07.498Z,999.70
2022-09-24T04:01:07.462Z,999.65
2022-09-24T04:02:07.519Z,999.65
2022-09-24T04:03:07.466Z,999.61
2022-09-24T04:04:07.489Z,999.60
2022-09-24T04:05:07.425Z,999.58
2022-09-24T04:06:07.608Z,999.55
2022-09-24T04:07:07.423Z,999.54
2022-09-24T04:08:07.392Z,999.56
2022-09-24T04:09:07.384Z,999.54
2022-09-24T04:10:07.350Z,999.54
2022-09-24T04:11:07.560Z,999.54
2022-09-24T04:12:07.352Z,999.50
2022-09-24T04:13:07.324Z,999.46
2022-09-24T04:14:07.342Z,999.50
2022-09-24T04:15:09.241Z,999.50
2022-09-24T04:16:07.341Z,999.47
2022-09-24T04:17:07.612Z,999.47
2022-09-24T04:18:07.273Z,999.44
2022-09-24T04:19:07.249Z,999.47
2022-09-24T04:20:07.254Z,999.45
2022-09-24T04:21:07.223Z,999.48
2022-09-24T04:22:07.214Z,999.44
2022-09-24T04:23:07.214Z,999.44
2022-09-24T04:24:07.202Z,999.43
2022-09-24T04:25:10.257Z,999.43
2022-09-24T04:26:08.188Z,999.47
2022-09-24T04:27:07.152Z,999.45
2022-09-24T04:28:07.144Z,999.47
2022-09-24T04:29:07.154Z,999.44
2022-09-24T04:30:07.117Z,999.39
2022-09-24T04:31:07.187Z,999.42
2022-09-24T04:32:07.087Z,999.38
2022-09-24T04:33:07.085Z,999.39
2022-09-24T04:34:07.118Z,999.39
2022-09-24T04:35:07.801Z,999.37
2022-09-24T04:36:07.047Z,999.38
2022-09-24T04:37:07.038Z,999.42
2022-09-24T04:38:07.341Z,999.41
2022-09-24T04:39:07.021Z,999.41
2022-09-24T04:40:07.032Z,999.45
2022-09-24T04:41:06.978Z,999.43
2022-09-24T04:42:06.993Z,999.44
2022-09-24T04:43:06.971Z,999.44
2022-09-24T04:44:07.316Z,999.43
2022-09-24T04:45:06.929Z,999.45
2022-09-24T04:46:06.980Z,999.48
2022-09-24T04:47:06.923Z,999.45
2022-09-24T04:48:06.949Z,999.43
2022-09-24T04:49:06.957Z,999.42
2022-09-24T04:50:06.914Z,999.45
2022-09-24T04:51:06.862Z,999.44
2022-09-24T04:52:06.851Z,999.43
2022-09-24T04:53:06.844Z,999.42
2022-09-24T04:54:06.832Z,999.41
2022-09-24T04:55:06.816Z,999.43
2022-09-24T04:56:07.135Z,999.43
2022-09-24T04:57:06.806Z,999.43
2022-09-24T04:58:06.783Z,999.48
2022-09-24T04:59:06.767Z,999.44
2022-09-24T05:00:06.775Z,999.46
2022-09-24T05:01:07.015Z,999.43
2022-09-24T05:02:09.456Z,999.45
2022-09-24T05:03:06.791Z,999.42
2022-09-24T05:04:06.724Z,999.42
2022-09-24T05:05:06.707Z,999.42
2022-09-24T05:06:06.684Z,999.43
2022-09-24T05:07:06.926Z,999.44
2022-09-24T05:08:06.664Z,999.43
2022-09-24T05:09:11.686Z,999.43
2022-09-24T05:10:07.652Z,999.42
2022-09-24T05:11:06.875Z,999.45
2022-09-24T05:12:06.616Z,999.39
2022-09-24T05:13:06.597Z,999.38
2022-09-24T05:14:06.596Z,999.37
2022-09-24T05:15:06.588Z,999.36
2022-09-24T05:16:06.671Z,999.36
2022-09-24T05:17:06.801Z,999.33
2022-09-24T05:18:06.828Z,999.40
2022-09-24T05:19:06.530Z,999.37
2022-09-24T05:20:06.540Z,999.34
2022-09-24T05:21:06.528Z,999.32
2022-09-24T05:22:06.512Z,999.39
2022-09-24T05:23:06.492Z,999.33
2022-09-24T05:24:06.782Z,999.34
2022-09-24T05:25:06.476Z,999.38
2022-09-24T05:26:06.449Z,999.40
2022-09-24T05:27:06.451Z,999.35
2022-09-24T05:28:06.466Z,999.38
2022-09-24T05:29:06.412Z,999.38
2022-09-24T05:30:06.434Z,999.37
2022-09-24T05:31:06.456Z,999.36
2022-09-24T05:32:06.396Z,999.35
2022-09-24T05:33:06.376Z,999.34
2022-09-24T05:34:06.366Z,999.35
2022-09-24T05:35:06.355Z,999.35
2022-09-24T05:36:06.617Z,999.38
2022-09-24T05:37:06.322Z,999.33
2022-09-24T05:38:06.316Z,999.39
2022-09-24T05:39:06.395Z,999.39
2022-09-24T05:40:06.343Z,999.41
2022-09-24T05:41:06.587Z,999.43
2022-09-24T05:42:06.278Z,999.44
2022-09-24T05:43:06.262Z,999.42
2022-09-24T05:44:06.249Z,999.43
2022-09-24T05:45:06.498Z,999.46
2022-09-24T05:46:06.323Z,999.42
2022-09-24T05:47:06.208Z,999.44
2022-09-24T05:48:06.187Z,999.41
2022-09-24T05:49:06.234Z,999.40
2022-09-24T05:50:06.478Z,999.41
2022-09-24T05:51:06.160Z,999.36
2022-09-24T05:52:06.136Z,999.38
2022-09-24T05:53:06.132Z,999.37
2022-09-24T05:54:06.139Z,999.37
2022-09-24T05:55:06.119Z,999.35
2022-09-24T05:56:06.420Z,999.40
2022-09-24T05:57:06.115Z,999.42
2022-09-24T05:58:06.069Z,999.39
2022-09-24T05:59:06.135Z,999.40
2022-09-24T06:00:06.076Z,999.40
2022-09-24T06:01:06.055Z,999.43
2022-09-24T06:02:06.101Z,999.38
2022-09-24T06:03:06.447Z,999.37
2022-09-24T06:04:08.792Z,999.41
2022-09-24T06:05:06.292Z,999.42
2022-09-24T06:06:05.993Z,999.43
2022-09-24T06:07:05.959Z,999.42
2022-09-24T06:08:05.975Z,999.42
2022-09-24T06:09:05.941Z,999.41
2022-09-24T06:10:05.952Z,999.44
2022-09-24T06:11:05.912Z,999.45
2022-09-24T06:12:05.925Z,999.41
2022-09-24T06:13:05.906Z,999.40
2022-09-24T06:14:05.882Z,999.45
2022-09-24T06:15:05.885Z,999.48
2022-09-24T06:16:05.947Z,999.48
2022-09-24T06:17:05.844Z,999.49
2022-09-24T06:18:05.847Z,999.49
2022-09-24T06:19:05.963Z,999.53
2022-09-24T06:20:05.827Z,999.55
2022-09-24T06:21:05.795Z,999.54
2022-09-24T06:22:06.024Z,999.52
2022-09-24T06:23:05.777Z,999.57
2022-09-24T06:24:05.755Z,999.57
2022-09-24T06:25:05.759Z,999.54
2022-09-24T06:26:05.749Z,999.55
2022-09-24T06:27:05.741Z,999.56
2022-09-24T06:28:05.988Z,999.54
2022-09-24T06:29:05.720Z,999.56
2022-09-24T06:30:05.707Z,999.54
2022-09-24T06:31:06.038Z,999.56
2022-09-24T06:32:05.666Z,999.56
2022-09-24T06:33:05.654Z,999.62
2022-09-24T06:34:05.659Z,999.60
2022-09-24T06:35:05.627Z,999.58
2022-09-24T06:36:05.618Z,999.61
2022-09-24T06:37:05.639Z,999.63
2022-09-24T06:38:05.620Z,999.62
2022-09-24T06:39:05.695Z,999.65
2022-09-24T06:40:05.747Z,999.63
2022-09-24T06:41:05.654Z,999.62
2022-09-24T06:42:05.881Z,999.62
2022-09-24T06:43:05.545Z,999.65
2022-09-24T06:44:05.542Z,999.64
2022-09-24T06:45:05.511Z,999.65
2022-09-24T06:46:05.542Z,999.72
2022-09-24T06:47:05.501Z,999.68
2022-09-24T06:48:05.814Z,999.70
2022-09-24T06:49:05.577Z,999.73
2022-09-24T06:50:05.449Z,999.72
2022-09-24T06:51:05.452Z,999.78
2022-09-24T06:52:05.429Z,999.76
2022-09-24T06:53:05.486Z,999.76
2022-09-24T06:54:05.404Z,999.74
2022-09-24T06:55:05.384Z,999.76
2022-09-24T06:56:05.398Z,999.71
2022-09-24T06:57:05.378Z,999.83
2022-09-24T06:58:05.369Z,999.74
2022-09-24T06:59:05.663Z,999.78
2022-09-24T07:00:05.349Z,999.72
2022-09-24T07:01:05.430Z,999.74
2022-09-24T07:02:05.687Z,999.72
2022-09-24T07:03:05.315Z,999.71
2022-09-24T07:04:05.295Z,999.76
2022-09-24T07:05:05.267Z,999.69
2022-09-24T07:06:05.290Z,999.79
2022-09-24T07:07:05.578Z,999.69
2022-09-24T07:08:05.250Z,999.78
2022-09-24T07:09:05.266Z,999.76
2022-09-24T07:10:05.217Z,999.77
2022-09-24T07:11:05.200Z,999.74
2022-09-24T07:12:05.213Z,999.73
2022-09-24T07:13:05.510Z,999.79
2022-09-24T07:14:05.182Z,999.77
2022-09-24T07:15:05.443Z,999.79
2022-09-24T07:16:05.232Z,999.78
2022-09-24T07:17:05.130Z,999.84
2022-09-24T07:18:05.126Z,999.81
2022-09-24T07:19:05.126Z,999.85
2022-09-24T07:20:05.098Z,999.83
2022-09-24T07:21:05.299Z,999.82
2022-09-24T07:22:05.096Z,999.88
2022-09-24T07:23:05.094Z,999.93
2022-09-24T07:24:05.062Z,999.90
2022-09-24T07:25:05.040Z,999.86
2022-09-24T07:26:05.032Z,999.89
2022-09-24T07:27:05.312Z,999.87
2022-09-24T07:28:05.025Z,999.93
2022-09-24T07:29:05.223Z,999.93
2022-09-24T07:30:04.994Z,999.91
2022-09-24T07:31:05.018Z,999.89
2022-09-24T07:32:04.963Z,999.95
2022-09-24T07:33:04.944Z,999.91
2022-09-24T07:34:05.181Z,999.89
2022-09-24T07:35:04.926Z,999.91
2022-09-24T07:36:04.918Z,999.94
2022-09-24T07:37:04.907Z,999.99
2022-09-24T07:38:04.908Z,999.98
2022-09-24T07:39:04.885Z,1000.03
2022-09-24T07:40:04.876Z,1000.01
2022-09-24T07:41:04.845Z,1000.02
2022-09-24T07:42:04.871Z,1000.01
2022-09-24T07:43:05.145Z,1000.01
2022-09-24T07:44:04.843Z,1000.08
2022-09-24T07:45:04.819Z,1000.04
2022-09-24T07:46:04.849Z,1000.06
2022-09-24T07:47:04.795Z,1000.08
2022-09-24T07:48:04.789Z,1000.03
2022-09-24T07:49:05.097Z,1000.09
2022-09-24T07:50:04.755Z,1000.09
2022-09-24T07:51:04.750Z,1000.09
2022-09-24T07:52:04.720Z,1000.06
2022-09-24T07:53:04.722Z,1000.07
2022-09-24T07:54:04.729Z,1000.10
2022-09-24T07:55:05.023Z,1000.07
2022-09-24T07:56:04.710Z,1000.11
2022-09-24T07:57:04.673Z,1000.10
2022-09-24T07:58:04.649Z,1000.15
2022-09-24T07:59:04.653Z,1000.14
2022-09-24T08:00:04.920Z,1000.11
2022-09-24T08:01:04.646Z,1000.09
2022-09-24T08:02:04.700Z,1000.11
2022-09-24T08:03:04.592Z,1000.08
2022-09-24T08:04:04.730Z,1000.04
2022-09-24T08:05:04.575Z,1000.10
2022-09-24T08:06:04.761Z,1000.06
2022-09-24T08:07:04.874Z,1000.07
2022-09-24T08:08:04.536Z,1000.02
2022-09-24T08:09:04.523Z,1000.07
2022-09-24T08:10:04.530Z,1000.05
2022-09-24T08:11:04.535Z,1000.06
2022-09-24T08:12:04.485Z,1000.07
2022-09-24T08:13:04.517Z,1000.14
2022-09-24T08:14:04.464Z,1000.07
2022-09-24T08:15:04.456Z,1000.13
2022-09-24T08:16:04.520Z,1000.10
2022-09-24T08:17:04.447Z,1000.11
2022-09-24T08:18:04.416Z,1000.09
2022-09-24T08:19:04.628Z,1000.09
2022-09-24T08:20:04.421Z,1000.08
2022-09-24T08:21:04.398Z,1000.08
2022-09-24T08:22:04.369Z,1000.11
2022-09-24T08:23:04.367Z,1000.13
2022-09-24T08:24:04.382Z,1000.12
2022-09-24T08:25:04.590Z,1000.07
2022-09-24T08:26:04.601Z,1000.12
2022-09-24T08:27:04.343Z,1000.13
2022-09-24T08:28:04.318Z,1000.12
2022-09-24T08:29:04.538Z,1000.13
2022-09-24T08:30:04.292Z,1000.11
2022-09-24T08:31:04.337Z,1000.11
2022-09-24T08:32:04.259Z,1000.16
2022-09-24T08:33:04.273Z,1000.16
2022-09-24T08:34:04.238Z,1000.18
2022-09-24T08:35:04.541Z,1000.14
2022-09-24T08:36:04.231Z,1000.15
2022-09-24T08:37:04.215Z,1000.17
2022-09-24T08:38:04.191Z,1000.18
2022-09-24T08:39:04.190Z,1000.16
2022-09-24T08:40:04.165Z,1000.10
2022-09-24T08:41:04.195Z,1000.10
2022-09-24T08:42:04.158Z,1000.11
2022-09-24T08:43:07.436Z,1000.09
2022-09-24T08:44:04.138Z,1000.13
2022-09-24T08:45:04.113Z,1000.11
2022-09-24T08:46:04.171Z,1000.10
2022-09-24T08:47:04.417Z,1000.10
2022-09-24T08:48:04.119Z,1000.13
2022-09-24T08:49:04.085Z,1000.12
2022-09-24T08:50:04.069Z,1000.13
2022-09-24T08:51:04.042Z,1000.11
2022-09-24T08:52:04.025Z,1000.10
2022-09-24T08:53:04.044Z,1000.17
2022-09-24T08:54:04.008Z,1000.09
2022-09-24T08:55:03.996Z,1000.10
2022-09-24T08:56:03.984Z,1000.08
2022-09-24T08:57:03.978Z,1000.14
2022-09-24T08:58:03.975Z,1000.10
2022-09-24T08:59:03.964Z,1000.15
2022-09-24T09:00:03.971Z,1000.17
2022-09-24T09:01:03.928Z,1000.18
2022-09-24T09:02:04.002Z,1000.19
2022-09-24T09:03:04.247Z,1000.19
2022-09-24T09:04:03.897Z,1000.22
2022-09-24T09:05:03.900Z,1000.25
2022-09-24T09:06:03.883Z,1000.23
2022-09-24T09:07:03.873Z,1000.22
2022-09-24T09:08:50.461Z,1000.21
2022-09-24T09:09:07.501Z,1000.22
2022-09-24T09:10:04.060Z,1000.23
2022-09-24T09:11:03.835Z,1000.20
2022-09-24T09:12:03.801Z,1000.25
2022-09-24T09:13:03.792Z,1000.24
2022-09-24T09:14:04.135Z,1000.23
2022-09-24T09:15:03.784Z,1000.25
2022-09-24T09:16:03.806Z,1000.21
2022-09-24T09:17:03.744Z,1000.26
2022-09-24T09:18:03.777Z,1000.24
2022-09-24T09:19:03.736Z,1000.22
2022-09-24T09:20:04.036Z,1000.23
2022-09-24T09:21:03.696Z,1000.26
2022-09-24T09:22:03.706Z,1000.24
2022-09-24T09:23:03.702Z,1000.30
2022-09-24T09:24:03.677Z,1000.26
2022-09-24T09:25:04.513Z,1000.31
2022-09-24T09:26:06.328Z,1000.33
2022-09-24T09:27:03.637Z,1000.30
2022-09-24T09:28:03.616Z,1000.31
2022-09-24T09:29:03.628Z,1000.35
2022-09-24T09:30:03.591Z,1000.30
2022-09-24T09:31:03.879Z,1000.33
2022-09-24T09:32:03.610Z,1000.35
2022-09-24T09:33:03.559Z,1000.34
2022-09-24T09:34:03.573Z,1000.32
2022-09-24T09:35:03.552Z,1000.35
2022-09-24T09:36:03.529Z,1000.36
2022-09-24T09:37:03.751Z,1000.35
2022-09-24T09:38:03.500Z,1000.29
2022-09-24T09:39:03.500Z,1000.32
2022-09-24T09:40:03.480Z,1000.29
2022-09-24T09:41:03.531Z,1000.32
2022-09-24T09:42:03.467Z,1000.30
2022-09-24T09:43:03.672Z,1000.34
2022-09-24T09:44:03.445Z,1000.28
2022-09-24T09:45:03.444Z,1000.30
2022-09-24T09:46:03.771Z,1000.30
2022-09-24T09:47:03.401Z,1000.30
2022-09-24T09:48:03.396Z,1000.33
2022-09-24T09:49:03.392Z,1000.27
2022-09-24T09:50:03.363Z,1000.32
2022-09-24T09:51:03.683Z,1000.28
2022-09-24T09:52:03.360Z,1000.26
2022-09-24T09:53:03.345Z,1000.24
2022-09-24T09:54:03.348Z,1000.26
2022-09-24T09:55:03.314Z,1000.26
2022-09-24T09:56:03.312Z,1000.27
2022-09-24T09:58:13.492Z,1000.25
2022-09-24T09:59:13.439Z,1000.25
2022-09-24T10:00:13.445Z,1000.27
2022-09-24T10:01:13.447Z,1000.25
2022-09-24T10:02:13.487Z,1000.30
2022-09-24T10:03:13.475Z,1000.29
2022-09-24T10:04:13.395Z,1000.25
2022-09-24T10:05:18.185Z,1000.27
2022-09-24T10:06:14.375Z,1000.25
2022-09-24T10:07:13.365Z,1000.25
2022-09-24T10:08:13.371Z,1000.27
2022-09-24T10:09:13.351Z,1000.25
2022-09-24T10:10:13.329Z,1000.24
2022-09-24T10:11:13.317Z,1000.22
2022-09-24T10:12:13.326Z,1000.21
2022-09-24T10:13:13.281Z,1000.20
2022-09-24T10:14:13.291Z,1000.18
2022-09-24T10:15:13.253Z,1000.21
2022-09-24T10:16:13.627Z,1000.21
2022-09-24T10:17:13.240Z,1000.22
2022-09-24T10:18:13.224Z,1000.21
2022-09-24T10:19:13.207Z,1000.20
2022-09-24T10:20:13.218Z,1000.23
2022-09-24T10:21:13.450Z,1000.18
2022-09-24T10:22:13.189Z,1000.21
2022-09-24T10:23:13.166Z,1000.19
2022-09-24T10:24:13.157Z,1000.23
2022-09-24T10:25:13.150Z,1000.22
2022-09-24T10:26:13.160Z,1000.22
2022-09-24T10:27:13.117Z,1000.18
2022-09-24T10:28:13.140Z,1000.20
2022-09-24T10:29:13.088Z,1000.17
2022-09-24T10:30:13.096Z,1000.21
2022-09-24T10:31:13.114Z,1000.19
2022-09-24T10:32:13.059Z,1000.19
2022-09-24T10:33:13.053Z,1000.21
2022-09-24T10:34:13.052Z,1000.23
2022-09-24T10:35:13.034Z,1000.19
2022-09-24T10:36:13.290Z,1000.24
2022-09-24T10:37:12.991Z,1000.22
2022-09-24T10:38:13.000Z,1000.20
2022-09-24T10:39:12.992Z,1000.26
2022-09-24T10:40:13.154Z,1000.21
2022-09-24T10:41:13.262Z,1000.25
2022-09-24T10:42:12.932Z,1000.23
2022-09-24T10:43:12.957Z,1000.25
2022-09-24T10:44:12.979Z,1000.25
2022-09-24T10:45:12.908Z,1000.32
2022-09-24T10:46:15.598Z,1000.30
2022-09-24T10:47:12.906Z,1000.26
2022-09-24T10:48:12.865Z,1000.23
2022-09-24T10:49:12.854Z,1000.24
2022-09-24T10:50:12.880Z,1000.23
2022-09-24T10:51:12.848Z,1000.30
2022-09-24T10:52:12.834Z,1000.26
2022-09-24T10:53:12.806Z,1000.32
2022-09-24T10:54:12.809Z,1000.29
2022-09-24T10:55:13.096Z,1000.28
2022-09-24T10:56:12.790Z,1000.32
2022-09-24T10:57:12.758Z,1000.30
2022-09-24T10:58:12.803Z,1000.33
2022-09-24T10:59:12.748Z,1000.31
2022-09-24T11:00:12.762Z,1000.32
2022-09-24T11:01:13.008Z,1000.29
2022-09-24T11:02:12.750Z,1000.30
2022-09-24T11:03:12.739Z,1000.31
2022-09-24T11:04:12.759Z,1000.30
2022-09-24T11:05:12.661Z,1000.25
2022-09-24T11:06:12.663Z,1000.28
2022-09-24T11:07:12.958Z,1000.29
2022-09-24T11:08:12.634Z,1000.23
2022-09-24T11:09:12.611Z,1000.19
2022-09-24T11:10:12.693Z,1000.24
2022-09-24T11:11:12.591Z,1000.27
2022-09-24T11:12:12.582Z,1000.22
2022-09-24T11:13:12.582Z,1000.20
2022-09-24T11:14:12.596Z,1000.15
2022-09-24T11:15:12.542Z,1000.20
2022-09-24T11:16:12.834Z,1000.18
2022-09-24T11:17:12.524Z,1000.17
2022-09-24T11:18:12.525Z,1000.17
2022-09-24T11:19:12.515Z,1000.16
2022-09-24T11:20:12.593Z,1000.14
2022-09-24T11:21:12.488Z,1000.14
2022-09-24T11:22:12.499Z,1000.21
2022-09-24T11:23:12.446Z,1000.18
2022-09-24T11:24:12.458Z,1000.15
2022-09-24T11:25:12.458Z,1000.16
2022-09-24T11:26:12.426Z,1000.16
2022-09-24T11:27:12.421Z,1000.16
2022-09-24T11:28:12.441Z,1000.12
2022-09-24T11:29:12.398Z,1000.15
2022-09-24T11:30:12.383Z,1000.16
2022-09-24T11:31:12.413Z,1000.13
2022-09-24T11:32:12.362Z,1000.12
2022-09-24T11:33:12.362Z,1000.15
2022-09-24T11:34:12.327Z,1000.14
2022-09-24T11:35:12.342Z,1000.17
2022-09-24T11:36:12.608Z,1000.16
2022-09-24T11:37:12.305Z,1000.16
2022-09-24T11:38:12.327Z,1000.17
2022-09-24T11:39:12.274Z,1000.16
2022-09-24T11:40:12.378Z,1000.19
2022-09-24T11:41:12.504Z,1000.21
2022-09-24T11:42:12.244Z,1000.23
2022-09-24T11:43:12.212Z,1000.20
2022-09-24T11:44:12.272Z,1000.21
2022-09-24T11:45:12.207Z,1000.23
2022-09-24T11:46:12.230Z,1000.23
2022-09-24T11:47:12.394Z,1000.20
2022-09-24T11:48:12.178Z,1000.22
2022-09-24T11:49:12.158Z,1000.15
2022-09-24T11:50:12.194Z,1000.21
2022-09-24T11:51:12.138Z,1000.19
2022-09-24T11:52:12.314Z,1000.17
2022-09-24T11:53:12.106Z,1000.16
2022-09-24T11:54:12.161Z,1000.21
2022-09-24T11:55:12.075Z,1000.21
2022-09-24T11:56:13.424Z,1000.18
2022-09-24T11:57:12.070Z,1000.16
2022-09-24T11:58:12.300Z,1000.18
2022-09-24T11:59:12.041Z,1000.18
2022-09-24T12:00:12.073Z,1000.14
2022-09-24T12:01:12.021Z,1000.16
2022-09-24T12:02:12.015Z,1000.17
2022-09-24T12:03:12.397Z,1000.16
2022-09-24T12:04:12.041Z,1000.14
2022-09-24T12:05:11.959Z,1000.16
2022-09-24T12:06:11.949Z,1000.18
2022-09-24T12:07:11.930Z,1000.14
2022-09-24T12:08:11.929Z,1000.14
2022-09-24T12:09:11.935Z,1000.17
2022-09-24T12:10:11.913Z,1000.18
2022-09-24T12:11:11.881Z,1000.13
2022-09-24T12:12:11.883Z,1000.11
2022-09-24T12:13:11.863Z,1000.14
2022-09-24T12:14:11.921Z,1000.14